Time;durP1;ratioP1;P1;durP2;ratioP2;P2;SDS_P1;SDS_P2;PMS_P1;PMS_P2;Temp;Humidity;BMP_temperature;BMP_pressure;BME280_temperature;BME280_humidity;BME280_pressure;Samples;Min_cycle;Max_cycle;Signal;HPM_P1;HPM_P2
2023/06/02 00:00:21;;;;;;;18.02;11.70;;;15.30;99.90;;;;;;7599468;19;20021;-75
2023/06/02 00:02:55;;;;;;;15.18;10.43;;;15.20;99.90;;;;;;7598150;19;20559;-75
2023/06/02 00:05:29;;;;;;;14.63;9.90;;;15.10;99.90;;;;;;7598565;19;20050;-75
2023/06/02 00:08:02;;;;;;;14.50;10.40;;;15.00;99.90;;;;;;7589566;19;20033;-75
2023/06/02 00:10:35;;;;;;;;;;;15.20;99.90;;;;;;7595029;19;20175;-76
2023/06/02 00:13:07;;;;;;;15.73;10.68;;;15.10;99.90;;;;;;7599935;19;19923;-75
2023/06/02 00:15:40;;;;;;;16.73;10.98;;;15.20;99.90;;;;;;7593093;19;20106;-75
2023/06/02 00:18:12;;;;;;;14.40;10.93;;;15.00;99.90;;;;;;7600055;19;20023;-76
2023/06/02 00:20:44;;;;;;;17.50;11.07;;;14.90;99.90;;;;;;7594720;19;20039;-75
2023/06/02 00:23:17;;;;;;;16.48;10.63;;;14.80;99.90;;;;;;7598399;19;20029;-75
2023/06/02 00:25:49;;;;;;;13.03;9.93;;;14.70;99.90;;;;;;7591446;19;20544;-75
2023/06/02 00:28:21;;;;;;;17.05;10.82;;;14.70;99.90;;;;;;7598279;19;20025;-75
2023/06/02 00:30:54;;;;;;;16.05;10.80;;;14.70;99.90;;;;;;7593411;19;20018;-74
2023/06/02 00:33:27;;;;;;;14.93;11.05;;;14.70;99.90;;;;;;7597829;19;20043;-75
2023/06/02 00:35:59;;;;;;;18.45;11.10;;;14.60;99.90;;;;;;7591386;19;20056;-76
2023/06/02 00:38:31;;;;;;;12.67;9.57;;;14.70;99.90;;;;;;7592338;19;20599;-76
2023/06/02 00:41:04;;;;;;;18.98;10.43;;;14.80;99.90;;;;;;7601508;19;20852;-76
2023/06/02 00:43:36;;;;;;;13.70;10.00;;;14.70;99.90;;;;;;7594552;19;20505;-76
2023/06/02 00:46:08;;;;;;;14.48;10.10;;;14.70;99.90;;;;;;7598746;19;20010;-77
2023/06/02 00:48:41;;;;;;;13.30;10.40;;;14.60;99.90;;;;;;7591408;19;20026;-76
2023/06/02 00:51:13;;;;;;;17.23;10.23;;;14.60;99.90;;;;;;7599495;19;20019;-77
2023/06/02 00:53:46;;;;;;;13.40;10.38;;;14.60;99.90;;;;;;7593262;19;20077;-77
2023/06/02 00:56:20;;;;;;;15.85;10.10;;;14.70;99.90;;;;;;7599037;19;20039;-79
2023/06/02 00:58:53;;;;;;;14.43;10.13;;;14.60;99.90;;;;;;7591813;19;20112;-79
2023/06/02 01:01:29;;;;;;;18.95;11.85;;;14.60;99.90;;;;;;7594437;19;20017;-77
2023/06/02 01:04:01;;;;;;;16.05;9.98;;;14.50;99.90;;;;;;7596928;19;20432;-78
2023/06/02 01:06:37;;;;;;;14.23;10.15;;;14.50;99.90;;;;;;7595774;19;20445;-78
2023/06/02 01:09:12;;;;;;;12.15;9.68;;;14.50;99.90;;;;;;7595459;19;20037;-77
2023/06/02 01:11:46;;;;;;;18.92;9.63;;;14.50;99.90;;;;;;7594804;19;20010;-78
2023/06/02 01:14:18;;;;;;;14.88;10.27;;;14.30;99.90;;;;;;7593827;19;20106;-75
2023/06/02 01:16:51;;;;;;;18.60;10.65;;;14.20;99.90;;;;;;7599089;19;20018;-77
2023/06/02 01:19:26;;;;;;;16.35;10.63;;;14.20;99.90;;;;;;7593715;19;20068;-77
2023/06/02 01:22:01;;;;;;;14.10;10.35;;;14.20;99.90;;;;;;7593293;19;20047;-76
2023/06/02 01:24:39;;;;;;;14.15;10.70;;;14.20;99.90;;;;;;7593865;19;20592;-77
2023/06/02 01:27:12;;;;;;;14.15;10.80;;;13.90;99.90;;;;;;7595246;19;20137;-78
2023/06/02 01:29:45;;;;;;;14.77;10.45;;;14.00;99.90;;;;;;7597581;19;20639;-78
2023/06/02 01:32:25;;;;;;;16.83;11.27;;;14.00;99.90;;;;;;7595114;19;20027;-78
2023/06/02 01:35:05;;;;;;;16.92;11.23;;;14.00;99.90;;;;;;7593064;19;20322;-78
2023/06/02 01:37:50;;;;;;;21.00;10.88;;;13.90;99.90;;;;;;7595566;19;20795;-77
2023/06/02 01:40:24;;;;;;;17.20;10.75;;;14.00;99.90;;;;;;7595670;19;20020;-76
2023/06/02 01:43:00;;;;;;;14.05;10.45;;;14.00;99.90;;;;;;7594914;19;20014;-77
2023/06/02 01:45:33;;;;;;;16.17;10.18;;;13.90;99.90;;;;;;7596821;19;20025;-79
2023/06/02 01:48:07;;;;;;;16.00;11.00;;;14.00;99.90;;;;;;7590867;19;20026;-75
2023/06/02 01:50:40;;;;;;;18.17;11.32;;;13.90;99.90;;;;;;7594564;19;20105;-76
2023/06/02 01:53:13;;;;;;;14.50;11.10;;;14.00;99.90;;;;;;7595148;19;20017;-76
2023/06/02 01:55:49;;;;;;;17.52;12.27;;;14.00;99.90;;;;;;7592927;19;20103;-76
2023/06/02 01:58:21;;;;;;;13.43;10.48;;;13.80;99.90;;;;;;7592663;19;20098;-77
2023/06/02 02:00:54;;;;;;;14.63;10.82;;;13.80;99.90;;;;;;7593726;19;20043;-78
2023/06/02 02:03:29;;;;;;;16.30;11.07;;;13.90;99.90;;;;;;7596134;19;20562;-78
2023/06/02 02:06:02;;;;;;;19.85;11.13;;;14.00;99.90;;;;;;7598883;19;20075;-77
2023/06/02 02:08:36;;;;;;;14.77;11.23;;;14.00;99.90;;;;;;7588567;19;20029;-77
2023/06/02 02:11:08;;;;;;;18.42;11.38;;;14.10;99.90;;;;;;7599259;19;20061;-77
2023/06/02 02:13:40;;;;;;;17.55;11.65;;;13.90;99.90;;;;;;7594940;19;20034;-78
2023/06/02 02:16:12;;;;;;;16.00;10.98;;;13.80;99.90;;;;;;7597034;19;20025;-76
2023/06/02 02:18:46;;;;;;;16.42;11.25;;;13.80;99.90;;;;;;7593483;19;20137;-77
2023/06/02 02:21:18;;;;;;;15.50;11.07;;;13.60;99.90;;;;;;7596685;19;20082;-77
2023/06/02 02:23:50;;;;;;;14.35;10.50;;;13.60;99.90;;;;;;7591973;19;20293;-77
2023/06/02 02:26:23;;;;;;;15.43;10.60;;;13.60;99.90;;;;;;7595239;19;20029;-77
2023/06/02 02:28:55;;;;;;;15.33;10.87;;;13.50;99.90;;;;;;7592798;19;20411;-78
2023/06/02 02:31:28;;;;;;;13.45;10.75;;;13.40;99.90;;;;;;7593205;19;20070;-77
2023/06/02 02:34:00;;;;;;;17.30;12.13;;;13.40;99.90;;;;;;7592418;19;20666;-78
2023/06/02 02:36:33;;;;;;;16.85;11.68;;;13.40;99.90;;;;;;7592109;19;20014;-77
2023/06/02 02:39:06;;;;;;;18.05;11.52;;;13.40;99.90;;;;;;7590667;19;20616;-77
2023/06/02 02:41:39;;;;;;;15.07;10.50;;;13.40;99.90;;;;;;7592391;19;20414;-76
2023/06/02 02:44:11;;;;;;;13.75;10.75;;;13.30;99.90;;;;;;7594890;19;20076;-75
2023/06/02 02:46:43;;;;;;;13.63;10.82;;;13.30;99.90;;;;;;7594116;19;20021;-76
2023/06/02 02:49:16;;;;;;;14.65;11.27;;;13.30;99.90;;;;;;7593665;19;20033;-77
2023/06/02 02:51:48;;;;;;;14.57;10.55;;;13.30;99.90;;;;;;7594386;19;20619;-76
2023/06/02 02:54:21;;;;;;;16.70;10.43;;;13.30;99.90;;;;;;7596801;19;20478;-76
2023/06/02 02:56:53;;;;;;;14.55;10.65;;;13.30;99.90;;;;;;7591290;19;21260;-79
2023/06/02 02:59:26;;;;;;;16.45;11.13;;;13.20;99.90;;;;;;7597474;19;20029;-77
2023/06/02 03:01:58;;;;;;;14.03;10.37;;;13.20;99.90;;;;;;7594096;19;20052;-76
2023/06/02 03:04:31;;;;;;;14.98;10.52;;;13.40;99.90;;;;;;7606350;19;20955;-78
2023/06/02 03:07:04;;;;;;;;;;;13.60;99.90;;;;;;7602162;19;20021;-76
2023/06/02 03:09:36;;;;;;;12.38;9.65;;;13.50;99.90;;;;;;7609735;19;20192;-77
2023/06/02 03:12:09;;;;;;;13.50;10.20;;;13.40;99.90;;;;;;7608675;19;20359;-78
2023/06/02 03:14:42;;;;;;;13.75;10.45;;;13.50;99.90;;;;;;7608613;19;20022;-77
2023/06/02 03:17:14;;;;;;;15.90;10.90;;;13.50;99.90;;;;;;7607081;19;20019;-78
2023/06/02 03:19:46;;;;;;;19.42;9.70;;;13.40;99.90;;;;;;7616299;19;20033;-78
2023/06/02 03:22:20;;;;;;;15.33;10.93;;;13.40;99.90;;;;;;7611467;19;20484;-79
2023/06/02 03:24:52;;;;;;;13.27;9.80;;;13.50;99.90;;;;;;7612731;19;20015;-78
2023/06/02 03:27:27;;;;;;;15.00;10.35;;;13.40;99.90;;;;;;7617870;19;20010;-76
2023/06/02 03:30:02;;;;;;;14.60;11.23;;;13.40;99.90;;;;;;7619691;19;20475;-78
2023/06/02 03:32:39;;;;;;;15.73;10.77;;;13.40;99.90;;;;;;7607943;19;20017;-76
2023/06/02 03:35:13;;;;;;;13.20;10.35;;;13.30;99.90;;;;;;7611067;19;20029;-76
2023/06/02 03:37:46;;;;;;;15.13;10.90;;;13.40;99.90;;;;;;7608290;19;20025;-76
2023/06/02 03:40:19;;;;;;;13.43;8.93;;;13.60;99.90;;;;;;7609103;19;20104;-78
2023/06/02 03:42:51;;;;;;;11.57;9.13;;;13.60;99.90;;;;;;7605020;19;20646;-76
2023/06/02 03:45:24;;;;;;;13.43;9.52;;;13.50;99.90;;;;;;7604290;19;20026;-78
2023/06/02 03:47:57;;;;;;;13.77;10.05;;;13.40;99.90;;;;;;7606410;19;21383;-78
2023/06/02 03:50:30;;;;;;;14.57;11.13;;;13.30;99.90;;;;;;7607335;19;20062;-77
2023/06/02 03:53:03;;;;;;;17.52;9.85;;;13.30;99.90;;;;;;7598984;19;20022;-78
2023/06/02 03:55:36;;;;;;;14.50;10.63;;;13.30;99.90;;;;;;7602700;19;20907;-78
2023/06/02 03:58:08;;;;;;;17.42;10.32;;;13.40;99.90;;;;;;7601575;19;20050;-77
2023/06/02 04:00:41;;;;;;;12.85;9.73;;;13.40;99.90;;;;;;7603315;19;20014;-77
2023/06/02 04:03:13;;;;;;;14.13;8.83;;;13.50;99.90;;;;;;7602910;19;20018;-78
2023/06/02 04:05:46;;;;;;;16.10;10.20;;;13.50;99.90;;;;;;7599435;19;20022;-76
2023/06/02 04:08:19;;;;;;;12.60;9.23;;;13.50;99.90;;;;;;7604613;19;20010;-78
2023/06/02 04:10:51;;;;;;;16.38;10.57;;;13.40;99.90;;;;;;7598110;19;21421;-78
2023/06/02 04:13:24;;;;;;;15.17;9.60;;;13.40;99.90;;;;;;7603148;19;20113;-77
2023/06/02 04:15:58;;;;;;;17.45;11.50;;;13.50;99.90;;;;;;7599425;19;20015;-77
2023/06/02 04:18:35;;;;;;;16.83;12.13;;;13.60;99.90;;;;;;7599074;19;20022;-77
2023/06/02 04:21:08;;;;;;;17.30;11.50;;;13.80;99.90;;;;;;7600373;19;20988;-78
2023/06/02 04:23:42;;;;;;;17.70;11.50;;;13.90;99.90;;;;;;7598208;19;20061;-76
2023/06/02 04:26:15;;;;;;;16.07;10.50;;;13.90;99.90;;;;;;7600356;19;20101;-77
2023/06/02 04:28:47;;;;;;;16.55;11.68;;;13.90;99.90;;;;;;7597140;19;20025;-77
2023/06/02 04:31:26;;;;;;;17.83;10.73;;;14.00;99.90;;;;;;7601090;19;20025;-78
2023/06/02 04:34:02;;;;;;;14.15;10.40;;;14.00;99.90;;;;;;7598638;19;20033;-78
2023/06/02 04:36:36;;;;;;;16.13;10.18;;;14.10;99.90;;;;;;7599311;19;20030;-78
2023/06/02 04:39:09;;;;;;;14.80;10.45;;;14.00;99.90;;;;;;7595730;19;20078;-75
2023/06/02 04:41:44;;;;;;;13.93;9.90;;;14.10;99.90;;;;;;7599712;19;20596;-76
2023/06/02 04:44:19;;;;;;;15.63;10.88;;;14.10;99.90;;;;;;7600724;19;20047;-78
2023/06/02 04:46:53;;;;;;;16.63;10.88;;;14.10;99.90;;;;;;7597276;19;20018;-78
2023/06/02 04:49:26;;;;;;;17.27;10.85;;;;;;;;;;7599008;19;20045;-77
2023/06/02 04:52:00;;;;;;;16.00;10.48;;;;;;;;;;7594281;19;20097;-78
2023/06/02 04:54:32;;;;;;;14.55;11.52;;;;;;;;;;7602870;19;20045;-78
2023/06/02 04:57:07;;;;;;;17.17;10.88;;;14.30;99.90;;;;;;7596994;19;20010;-77
2023/06/02 04:59:39;;;;;;;;;;;14.60;99.90;;;;;;7601322;19;20663;-76
2023/06/02 05:02:13;;;;;;;16.25;10.30;;;14.70;99.90;;;;;;7597688;19;20023;-78
2023/06/02 05:04:45;;;;;;;17.48;10.68;;;14.70;99.90;;;;;;7598178;19;20026;-77
2023/06/02 05:07:18;;;;;;;15.20;10.68;;;;;;;;;;7599411;19;20019;-78
2023/06/02 05:09:51;;;;;;;18.00;10.27;;;;;;;;;;7599281;19;20027;-78
2023/06/02 05:12:25;;;;;;;15.48;10.70;;;;;;;;;;7601303;19;20615;-76
2023/06/02 05:14:59;;;;;;;19.48;10.07;;;;;;;;;;7601203;19;20070;-77
2023/06/02 05:17:32;;;;;;;25.05;10.60;;;;;;;;;;7592488;19;20025;-77
2023/06/02 05:20:06;;;;;;;12.23;9.18;;;;;;;;;;7598905;19;20021;-78
2023/06/02 05:22:40;;;;;;;13.48;9.90;;;;;;;;;;7599100;19;20006;-78
2023/06/02 05:25:15;;;;;;;17.25;9.88;;;;;;;;;;7597024;19;20666;-78
2023/06/02 05:27:48;;;;;;;14.32;10.25;;;;;;;;;;7593404;19;20055;-78
2023/06/02 05:30:21;;;;;;;17.80;9.93;;;;;;;;;;7597580;19;20779;-80
2023/06/02 05:32:54;;;;;;;16.85;9.27;;;;;;;;;;7600049;19;20679;-79
2023/06/02 05:35:27;;;;;;;12.90;9.63;;;;;;;;;;7598226;19;20028;-79
2023/06/02 05:38:00;;;;;;;16.05;9.15;;;;;;;;;;7595208;19;20019;-77
2023/06/02 05:40:33;;;;;;;16.13;9.88;;;;;;;;;;7600771;19;20748;-79
2023/06/02 05:43:07;;;;;;;16.20;9.18;;;;;;;;;;7595030;19;20029;-77
2023/06/02 05:45:40;;;;;;;16.05;9.70;;;;;;;;;;7597731;19;20010;-76
2023/06/02 05:48:13;;;;;;;14.38;9.45;;;;;;;;;;7591115;19;20021;-77
2023/06/02 05:50:46;;;;;;;13.43;9.13;;;;;;;;;;7597845;19;20014;-78
2023/06/02 05:53:19;;;;;;;12.90;8.93;;;;;;;;;;7596048;19;20006;-77
2023/06/02 05:55:52;;;;;;;17.13;9.15;;;;;;;;;;7598202;19;20392;-77
2023/06/02 05:58:25;;;;;;;21.00;9.30;;;;;;;;;;7598970;19;20026;-78
2023/06/02 06:00:58;;;;;;;17.63;9.70;;;;;;;;;;7592797;19;20018;-78
2023/06/02 06:03:31;;;;;;;13.65;8.77;;;;;;;;;;7598960;19;20083;-76
2023/06/02 06:06:04;;;;;;;12.77;8.43;;;;;;;;;;7594854;19;20069;-77
2023/06/02 06:08:37;;;;;;;14.65;8.88;;;;;;;;;;7591816;19;20492;-76
2023/06/02 06:11:12;;;;;;;12.07;8.50;;;;;;;;;;7594564;19;20026;-77
2023/06/02 06:13:44;;;;;;;20.35;8.75;;;;;;;;;;7595947;19;20057;-76
2023/06/02 06:16:17;;;;;;;12.10;8.27;;;;;;;;;;7592814;19;20051;-75
2023/06/02 06:18:50;;;;;;;13.33;8.57;;;;;;;;;;7593379;19;20516;-76
2023/06/02 06:21:23;;;;;;;10.95;8.38;;;;;;;;;;7605260;19;20014;-77
2023/06/02 06:23:56;;;;;;;15.13;8.50;;;;;;;;;;7596964;19;20017;-75
2023/06/02 06:26:29;;;;;;;13.23;8.95;;;;;;;;;;7597081;19;20023;-75
2023/06/02 06:29:03;;;;;;;12.83;8.87;;;;;;;;;;7590794;19;20939;-76
2023/06/02 06:31:37;;;;;;;13.95;9.20;;;;;;;;;;7602830;19;20013;-76
2023/06/02 06:34:11;;;;;;;15.60;9.85;;;;;;;;;;7597727;19;20425;-76
2023/06/02 06:36:45;;;;;;;;;;;;;;;;;;7603462;19;20352;-75
2023/06/02 06:39:17;;;;;;;14.43;9.40;;;;;;;;;;7598996;19;19922;-76
2023/06/02 06:41:50;;;;;;;16.35;8.95;;;;;;;;;;7601728;19;20003;-75
2023/06/02 06:44:40;;;;;;;18.73;8.90;;;14.80;99.90;;;;;;7607526;19;20019;-75
2023/06/02 06:47:12;;;;;;;12.70;8.60;;;;;;;;;;7597555;19;20412;-76
2023/06/02 06:49:45;;;;;;;15.02;9.48;;;;;;;;;;7604780;19;20105;-76
2023/06/02 06:52:18;;;;;;;15.97;8.67;;;;;;;;;;7601194;19;20010;-77
2023/06/02 06:54:51;;;;;;;18.67;9.43;;;;;;;;;;7604314;19;20037;-77
2023/06/02 06:57:23;;;;;;;10.98;8.10;;;;;;;;;;7605606;19;20074;-77
2023/06/02 06:59:56;;;;;;;15.15;9.40;;;;;;;;;;7612333;19;20045;-78
2023/06/02 07:02:29;;;;;;;17.42;8.85;;;;;;;;;;7609423;19;20054;-77
2023/06/02 07:05:01;;;;;;;11.73;8.30;;;;;;;;;;7608150;19;20010;-76
2023/06/02 07:07:34;;;;;;;15.90;9.13;;;;;;;;;;7605467;19;20033;-75
2023/06/02 07:10:07;;;;;;;12.82;8.73;;;;;;;;;;7603277;19;20689;-76
2023/06/02 07:12:41;;;;;;;16.63;8.32;;;;;;;;;;7605283;19;20021;-76
2023/06/02 07:15:13;;;;;;;14.25;8.20;;;;;;;;;;7595977;19;20010;-77
2023/06/02 07:17:46;;;;;;;13.23;7.63;;;;;;;;;;7602575;19;20396;-76
2023/06/02 07:20:19;;;;;;;17.73;8.45;;;;;;;;;;7599886;19;20082;-77
2023/06/02 07:22:52;;;;;;;16.67;8.60;;;;;;;;;;7605382;19;20023;-76
2023/06/02 07:25:24;;;;;;;13.98;7.90;;;;;;;;;;7609027;19;20070;-75
2023/06/02 07:27:57;;;;;;;17.00;8.30;;;;;;;;;;7604725;19;20010;-76
2023/06/02 07:30:31;;;;;;;13.63;8.48;;;;;;;;;;7601431;19;20842;-76
2023/06/02 07:33:04;;;;;;;18.40;9.40;;;;;;;;;;7597031;19;20019;-75
2023/06/02 07:35:37;;;;;;;18.67;8.60;;;;;;;;;;7599629;19;20022;-76
2023/06/02 07:38:10;;;;;;;11.17;8.10;;;;;;;;;;7596801;19;20425;-76
2023/06/02 07:40:42;;;;;;;15.75;8.13;;;;;;;;;;7599412;19;20271;-75
2023/06/02 07:43:15;;;;;;;17.90;7.78;;;;;;;;;;7599266;19;20567;-76
2023/06/02 07:45:47;;;;;;;12.20;7.82;;;;;;;;;;7601605;19;20825;-76
2023/06/02 07:48:20;;;;;;;14.48;8.23;;;;;;;;;;7599508;19;20026;-76
2023/06/02 07:50:53;;;;;;;16.45;9.00;;;;;;;;;;7601210;19;20647;-76
2023/06/02 07:53:26;;;;;;;16.88;7.97;;;;;;;;;;7598871;19;20902;-75
2023/06/02 07:55:59;;;;;;;13.40;7.90;;;;;;;;;;7599059;19;20018;-76
2023/06/02 07:58:31;;;;;;;15.52;7.72;;;;;;;;;;7598623;19;20630;-75
2023/06/02 08:01:04;;;;;;;22.25;7.68;;;;;;;;;;7598368;19;20122;-76
2023/06/02 08:03:39;;;;;;;15.35;8.10;;;;;;;;;;7586697;19;20342;-76
2023/06/02 08:06:13;;;;;;;11.25;6.97;;;;;;;;;;7600448;19;21281;-77
2023/06/02 08:08:46;;;;;;;12.82;7.45;;;;;;;;;;7597873;19;20368;-76
2023/06/02 08:11:19;;;;;;;14.00;7.43;;;;;;;;;;7601423;19;20021;-75
2023/06/02 08:13:52;;;;;;;9.20;7.20;;;;;;;;;;7599123;19;20014;-76
2023/06/02 08:16:24;;;;;;;14.45;7.18;;;;;;;;;;7594339;19;20052;-76
2023/06/02 08:19:03;;;;;;;18.60;7.55;;;;;;;;;;7588095;19;20621;-77
2023/06/02 08:21:36;;;;;;;17.23;6.85;;;;;;;;;;7596173;19;20014;-76
2023/06/02 08:24:09;;;;;;;;;;;;;;;;;;7595198;19;20433;-77
2023/06/02 08:26:44;;;;;;;14.30;7.20;;;;;;;;;;7598415;19;19921;-77
2023/06/02 08:29:17;;;;;;;21.85;7.43;;;;;;;;;;7592292;19;20558;-76
2023/06/02 08:31:50;;;;;;;11.73;7.40;;;;;;;;;;7595401;19;20022;-76
2023/06/02 08:34:24;;;;;;;14.48;8.30;;;;;;;;;;7591349;19;20049;-76
2023/06/02 08:37:00;;;;;;;16.13;7.45;;;;;;;;;;7592996;19;20639;-76
2023/06/02 08:39:34;;;;;;;10.40;6.15;;;;;;;;;;7594087;19;20622;-76
2023/06/02 08:42:10;;;;;;;15.15;5.82;;;;;;;;;;7594602;19;20394;-76
2023/06/02 08:44:44;;;;;;;24.55;7.72;;;;;;;;;;7596013;19;20032;-76
2023/06/02 08:47:24;;;;;;;12.85;5.95;;;;;;;;;;7589259;19;20860;-76
2023/06/02 08:49:59;;;;;;;12.23;6.82;;;;;;;;;;7592378;19;20933;-74
2023/06/02 08:52:32;;;;;;;15.80;7.03;;;;;;;;;;7594083;19;20025;-76
2023/06/02 08:55:05;;;;;;;12.23;7.05;;;;;;;;;;7586842;19;20722;-76
2023/06/02 08:57:38;;;;;;;16.40;6.53;;;;;;;;;;7595094;19;20048;-76
2023/06/02 09:00:11;;;;;;;19.55;6.82;;;;;;;;;;7591914;19;20022;-75
2023/06/02 09:02:43;;;;;;;15.70;7.32;;;;;;;;;;7605871;19;20014;-75
2023/06/02 09:05:16;;;;;;;13.53;8.17;;;;;;;;;;7589453;19;20022;-76
2023/06/02 09:08:05;;;;;;;25.13;7.82;;;;;;;;;;7580961;19;20327;-76
2023/06/02 09:10:41;;;;;;;14.27;7.05;;;;;;;;;;7596040;19;20021;-76
2023/06/02 09:13:30;;;;;;;21.10;7.20;;;;;;;;;;7590367;19;20476;-77
2023/06/02 09:16:04;;;;;;;17.02;6.63;;;;;;;;;;7593755;19;20325;-76
2023/06/02 09:18:37;;;;;;;12.88;7.22;;;;;;;;;;7598148;19;20662;-76
2023/06/02 09:21:23;;;;;;;14.83;7.23;;;;;;;;;;7595185;19;20090;-77
2023/06/02 09:23:57;;;;;;;11.10;6.10;;;;;;;;;;7595439;19;20036;-76
2023/06/02 09:26:50;;;;;;;15.15;6.45;;;;;;;;;;7599136;19;20048;-76
2023/06/02 09:29:23;;;;;;;11.50;5.70;;;18.10;99.90;;;;;;7586555;19;20709;-76
2023/06/02 09:31:58;;;;;;;12.80;5.78;;;23.50;71.40;;;;;;7592676;19;20029;-74
2023/06/02 09:34:35;;;;;;;13.73;6.25;;;23.50;69.30;;;;;;7593874;19;20121;-76
2023/06/02 09:37:12;;;;;;;10.45;5.57;;;23.40;67.30;;;;;;7591153;19;20015;-76
2023/06/02 09:39:48;;;;;;;8.88;6.05;;;23.50;67.00;;;;;;7594800;19;20114;-76
2023/06/02 09:42:21;;;;;;;10.90;7.45;;;23.60;67.40;;;;;;7588228;19;20013;-75
2023/06/02 09:45:07;;;;;;;12.30;6.20;;;23.50;66.00;;;;;;7595700;19;20007;-77
2023/06/02 09:47:41;;;;;;;9.18;6.05;;;23.50;66.80;;;;;;7596411;19;20014;-76
2023/06/02 09:50:35;;;;;;;11.13;5.45;;;23.50;67.50;;;;;;7591996;19;20011;-76
2023/06/02 09:53:11;;;;;;;10.05;5.50;;;23.40;65.30;;;;;;7589354;19;20026;-75
2023/06/02 09:55:44;;;;;;;14.27;5.65;;;23.60;65.70;;;;;;7592909;19;20093;-76
2023/06/02 09:58:17;;;;;;;12.25;6.45;;;23.50;64.10;;;;;;7587102;19;20397;-75
2023/06/02 10:00:55;;;;;;;8.40;5.47;;;23.60;65.20;;;;;;7593906;19;20018;-77
2023/06/02 10:03:30;;;;;;;12.85;6.18;;;23.70;67.20;;;;;;7584778;19;20113;-76
2023/06/02 10:06:32;;;;;;;13.52;5.93;;;23.80;65.50;;;;;;7594651;19;20682;-73
2023/06/02 10:09:33;;;;;;;9.68;5.45;;;23.80;65.20;;;;;;7586088;19;20028;-76
2023/06/02 10:12:49;;;;;;;17.60;5.72;;;23.90;65.80;;;;;;7589255;19;20078;-76
2023/06/02 10:15:31;;;;;;;10.93;5.47;;;24.10;66.70;;;;;;7584448;19;20116;-76
2023/06/02 10:18:24;;;;;;;10.98;5.45;;;24.10;66.60;;;;;;7581812;19;20678;-75
2023/06/02 10:21:16;;;;;;;9.10;5.63;;;;;;;;;;7592703;19;20029;-76
2023/06/02 10:23:51;;;;;;;11.45;5.28;;;24.40;65.60;;;;;;7590290;19;20122;-76
2023/06/02 10:26:38;;;;;;;8.30;4.65;;;25.70;61.10;;;;;;7592729;19;21512;-76
2023/06/02 10:29:14;;;;;;;14.50;5.72;;;26.30;59.20;;;;;;7586720;19;20105;-76
2023/06/02 10:31:47;;;;;;;10.55;5.55;;;26.30;58.00;;;;;;7592791;19;20319;-76
2023/06/02 10:34:34;;;;;;;9.90;5.87;;;26.30;60.00;;;;;;7586896;19;21153;-77
2023/06/02 10:37:10;;;;;;;14.98;6.20;;;26.70;60.20;;;;;;7586686;19;20011;-75
2023/06/02 10:39:42;;;;;;;15.48;5.47;;;27.10;57.80;;;;;;7592058;19;20018;-76
2023/06/02 10:42:16;;;;;;;12.05;5.53;;;27.20;58.60;;;;;;7590344;19;22626;-77
2023/06/02 10:44:51;;;;;;;13.25;5.68;;;27.10;56.40;;;;;;7592668;19;20018;-74
2023/06/02 10:47:23;;;;;;;7.30;5.22;;;26.60;57.10;;;;;;7586129;19;20033;-75
2023/06/02 10:49:59;;;;;;;132.07;9.95;;;;;;;;;;7592010;19;20014;-76
2023/06/02 10:52:51;;;;;;;57.67;7.38;;;26.70;56.90;;;;;;7586437;19;20022;-76
2023/06/02 10:55:26;;;;;;;9.18;4.55;;;27.20;55.70;;;;;;7584183;19;20029;-75
2023/06/02 10:58:03;;;;;;;10.27;4.22;;;27.30;54.40;;;;;;7574541;19;20025;-76
2023/06/02 11:00:35;;;;;;;7.50;4.22;;;27.60;53.70;;;;;;7589344;19;20018;-76
2023/06/02 11:03:08;;;;;;;11.07;5.32;;;27.80;52.40;;;;;;7591303;19;20026;-75
2023/06/02 11:05:42;;;;;;;7.88;4.80;;;28.10;53.60;;;;;;7589660;19;20035;-76
2023/06/02 11:08:14;;;;;;;11.73;5.60;;;28.00;52.60;;;;;;7585597;19;20546;-76
2023/06/02 11:10:55;;;;;;;10.60;5.30;;;28.10;51.70;;;;;;7594023;19;20025;-76
2023/06/02 11:13:28;;;;;;;8.52;4.75;;;27.90;53.40;;;;;;7583868;19;20019;-77
2023/06/02 11:16:00;;;;;;;10.35;5.18;;;27.70;52.70;;;;;;7589014;19;20993;-76
2023/06/02 11:18:32;;;;;;;7.57;4.70;;;27.80;52.80;;;;;;7582841;19;20650;-76
2023/06/02 11:21:19;;;;;;;12.23;5.55;;;27.80;51.80;;;;;;7597681;19;21030;-75
2023/06/02 11:23:56;;;;;;;11.60;5.43;;;27.80;50.90;;;;;;7600905;19;20026;-75
2023/06/02 11:26:29;;;;;;;10.65;5.00;;;28.00;51.90;;;;;;7589166;19;20089;-77
2023/06/02 11:29:14;;;;;;;13.90;5.38;;;28.10;51.60;;;;;;7593787;19;20061;-75
2023/06/02 11:31:47;;;;;;;10.65;5.13;;;28.10;49.40;;;;;;7598767;19;20102;-76
2023/06/02 11:34:20;;;;;;;;;;;28.00;49.30;;;;;;7590084;19;20014;-74
2023/06/02 11:36:53;;;;;;;10.68;5.43;;;28.00;50.70;;;;;;7598159;19;20785;-76
2023/06/02 11:39:25;;;;;;;8.20;5.90;;;28.10;51.30;;;;;;7587877;19;20026;-76
2023/06/02 11:41:58;;;;;;;11.35;6.32;;;28.50;52.40;;;;;;7602317;19;20110;-76
2023/06/02 11:44:30;;;;;;;10.90;6.00;;;28.80;52.10;;;;;;7594774;19;20788;-77
2023/06/02 11:47:03;;;;;;;13.97;5.97;;;28.80;52.20;;;;;;7599722;19;20019;-77
2023/06/02 11:49:36;;;;;;;12.20;5.90;;;28.60;49.80;;;;;;7590384;19;20102;-76
2023/06/02 11:52:10;;;;;;;10.38;6.10;;;28.30;49.60;;;;;;7598467;19;20271;-76
2023/06/02 11:54:52;;;;;;;11.05;6.20;;;28.30;53.10;;;;;;7601415;19;20021;-77
2023/06/02 11:57:27;;;;;;;11.17;6.13;;;28.40;51.10;;;;;;7596224;19;20028;-77
2023/06/02 12:00:12;;;;;;;8.27;5.43;;;28.60;50.60;;;;;;7600427;19;20290;-75
2023/06/02 12:02:57;;;;;;;12.30;6.72;;;28.80;49.60;;;;;;7598350;19;20026;-76
2023/06/02 12:05:31;;;;;;;9.43;5.47;;;28.50;49.20;;;;;;7597560;19;20014;-76
2023/06/02 12:08:20;;;;;;;8.38;5.75;;;28.60;52.30;;;;;;7603374;19;20010;-76
2023/06/02 12:10:55;;;;;;;10.68;6.00;;;28.80;50.80;;;;;;7592951;19;20026;-77
2023/06/02 12:13:32;;;;;;;12.13;6.30;;;29.10;49.30;;;;;;7590186;19;20014;-75
2023/06/02 12:16:19;;;;;;;;;;;29.10;48.40;;;;;;7597411;19;20014;-77
2023/06/02 12:18:54;;;;;;;12.45;6.20;;;29.30;50.30;;;;;;7594168;19;19998;-77
2023/06/02 12:21:28;;;;;;;8.38;6.18;;;29.40;50.30;;;;;;7595879;19;20089;-76
2023/06/02 12:24:00;;;;;;;7.75;5.75;;;29.70;48.10;;;;;;7601911;19;20089;-76
2023/06/02 12:26:40;;;;;;;13.85;6.35;;;29.70;49.60;;;;;;7598311;19;20049;-75
2023/06/02 12:29:13;;;;;;;12.30;6.03;;;29.50;47.30;;;;;;7593750;19;20018;-75
2023/06/02 12:31:45;;;;;;;7.38;5.65;;;29.50;47.50;;;;;;7592543;19;20675;-75
2023/06/02 12:34:20;;;;;;;6.25;5.53;;;29.80;47.90;;;;;;7596206;19;20011;-77
2023/06/02 12:36:52;;;;;;;11.27;6.30;;;29.50;49.00;;;;;;7601393;19;20270;-78
2023/06/02 12:39:24;;;;;;;10.57;6.30;;;29.40;47.80;;;;;;7592189;19;20343;-77
2023/06/02 12:41:57;;;;;;;9.20;6.50;;;29.60;48.10;;;;;;7596382;19;20010;-78
2023/06/02 12:44:29;;;;;;;7.43;6.00;;;29.70;46.30;;;;;;7594010;19;20089;-76
2023/06/02 12:47:01;;;;;;;8.77;6.05;;;29.90;48.20;;;;;;7594596;19;20011;-77
2023/06/02 12:49:34;;;;;;;13.32;6.22;;;30.00;46.90;;;;;;7592602;19;20022;-76
2023/06/02 12:52:06;;;;;;;11.63;6.45;;;30.00;47.20;;;;;;7593679;19;20484;-77
2023/06/02 12:54:39;;;;;;;8.02;5.95;;;30.00;47.20;;;;;;7599492;19;20502;-76
2023/06/02 12:57:11;;;;;;;9.32;5.90;;;30.00;48.50;;;;;;7596120;19;20018;-76
2023/06/02 12:59:43;;;;;;;7.93;5.77;;;30.00;48.10;;;;;;7607332;19;20018;-76
2023/06/02 13:02:15;;;;;;;9.97;6.00;;;29.90;45.50;;;;;;7590216;19;20018;-75
2023/06/02 13:04:48;;;;;;;9.53;5.57;;;29.70;46.40;;;;;;7621144;19;20018;-78
2023/06/02 13:07:20;;;;;;;12.27;6.20;;;29.50;48.70;;;;;;7601104;19;20018;-76
2023/06/02 13:09:52;;;;;;;10.93;6.05;;;30.10;47.90;;;;;;7603387;19;20891;-75
2023/06/02 13:12:24;;;;;;;7.55;6.10;;;30.30;47.10;;;;;;7594147;19;20010;-77
2023/06/02 13:14:57;;;;;;;12.55;5.85;;;30.30;46.00;;;;;;7599373;19;20014;-76
2023/06/02 13:17:30;;;;;;;8.50;5.47;;;30.60;47.10;;;;;;7589892;19;20026;-77
2023/06/02 13:20:03;;;;;;;10.18;6.13;;;30.80;45.50;;;;;;7600702;19;20018;-76
2023/06/02 13:22:35;;;;;;;;;;;30.70;43.80;;;;;;7606531;19;20019;-76
2023/06/02 13:25:08;;;;;;;7.78;6.22;;;30.40;45.30;;;;;;7625348;19;19967;-77
2023/06/02 13:27:42;;;;;;;10.43;6.47;;;30.20;45.80;;;;;;7612907;19;20495;-78
2023/06/02 13:30:16;;;;;;;9.45;5.80;;;30.20;46.70;;;;;;7603523;19;20074;-76
2023/06/02 13:32:48;;;;;;;11.50;6.30;;;30.40;45.80;;;;;;7604415;19;20014;-77
2023/06/02 13:35:20;;;;;;;7.43;6.40;;;30.70;46.00;;;;;;7614704;19;20007;-77
2023/06/02 13:37:52;;;;;;;7.93;6.77;;;30.80;45.40;;;;;;7621449;19;20021;-77
2023/06/02 13:40:25;;;;;;;10.33;6.03;;;30.80;45.40;;;;;;7599350;19;20275;-75
2023/06/02 13:42:57;;;;;;;6.88;5.93;;;30.70;44.80;;;;;;7599311;19;20259;-77
2023/06/02 13:45:30;;;;;;;9.87;5.90;;;30.80;46.00;;;;;;7604420;19;20052;-76
2023/06/02 13:48:06;;;;;;;11.23;6.15;;;31.00;43.70;;;;;;7606114;19;20003;-76